Time;durP1;ratioP1;P1;durP2;ratioP2;P2;SDS_P1;SDS_P2;PMS_P1;PMS_P2;Temp;Humidity;BMP_temperature;BMP_pressure;BME280_temperature;BME280_humidity;BME280_pressure;Samples;Min_cycle;Max_cycle;Signal;HPM_P1;HPM_P2
2021/10/15 00:01:09;;;;;;;21.13;13.27;;;7.50;99.90;;;;;;5092445;28;20536;-66
2021/10/15 00:03:37;;;;;;;19.75;13.43;;;7.50;99.90;;;;;;5077803;28;20044;-66
2021/10/15 00:06:04;;;;;;;22.52;14.05;;;7.50;99.90;;;;;;5089440;28;20062;-65
2021/10/15 00:08:32;;;;;;;23.08;14.60;;;7.40;99.90;;;;;;5088575;28;20044;-65
2021/10/15 00:11:00;;;;;;;22.65;13.38;;;7.40;99.90;;;;;;5092270;28;20051;-65
2021/10/15 00:13:27;;;;;;;19.08;13.98;;;7.50;99.90;;;;;;5091615;28;20040;-65
2021/10/15 00:15:55;;;;;;;20.27;14.07;;;7.40;99.90;;;;;;5068117;28;20044;-65
2021/10/15 00:18:22;;;;;;;23.10;13.40;;;7.40;99.90;;;;;;5091906;28;20040;-65
2021/10/15 00:20:50;;;;;;;22.13;13.50;;;7.40;99.90;;;;;;5077804;28;20036;-65
2021/10/15 00:23:18;;;;;;;21.63;13.15;;;7.30;99.90;;;;;;5091989;28;20417;-65
2021/10/15 00:25:46;;;;;;;25.10;14.32;;;7.40;99.90;;;;;;5088620;28;20130;-65
2021/10/15 00:28:14;;;;;;;22.65;14.02;;;7.40;99.90;;;;;;5071490;28;20075;-65
2021/10/15 00:30:42;;;;;;;21.92;13.38;;;7.30;99.90;;;;;;5088795;28;20040;-65
2021/10/15 00:33:09;;;;;;;20.42;13.93;;;7.30;99.90;;;;;;5087313;28;20399;-65
2021/10/15 00:35:36;;;;;;;22.00;13.55;;;7.30;99.90;;;;;;5086472;28;20036;-65
2021/10/15 00:38:04;;;;;;;23.95;14.55;;;7.30;99.90;;;;;;5091651;28;20043;-65
2021/10/15 00:40:31;;;;;;;21.33;14.63;;;7.30;99.90;;;;;;5084384;28;20048;-65
2021/10/15 00:42:58;;;;;;;24.80;14.80;;;7.30;99.90;;;;;;5091514;28;20414;-65
2021/10/15 00:45:25;;;;;;;27.35;15.85;;;7.30;99.90;;;;;;5074351;28;20040;-65
2021/10/15 00:47:53;;;;;;;22.88;13.68;;;7.30;99.90;;;;;;5070841;28;20462;-65
2021/10/15 00:50:20;;;;;;;22.00;14.52;;;7.20;99.90;;;;;;5073387;28;20072;-65
2021/10/15 00:52:47;;;;;;;22.05;13.77;;;7.20;99.90;;;;;;5071371;28;20044;-65
2021/10/15 00:55:15;;;;;;;23.67;13.98;;;7.20;99.90;;;;;;5076100;28;20036;-65
2021/10/15 00:57:42;;;;;;;24.00;15.18;;;7.10;99.90;;;;;;5078822;28;20039;-65
2021/10/15 01:00:09;;;;;;;22.63;13.48;;;7.10;99.90;;;;;;5082006;28;20446;-65
2021/10/15 01:02:37;;;;;;;22.73;14.02;;;7.10;99.90;;;;;;5074820;28;20444;-65
2021/10/15 01:05:05;;;;;;;20.92;14.15;;;7.10;99.90;;;;;;5079819;28;20051;-66
2021/10/15 01:07:33;;;;;;;20.48;14.13;;;7.00;99.90;;;;;;5076560;28;20036;-64
2021/10/15 01:10:00;;;;;;;22.02;13.10;;;7.00;99.90;;;;;;5077389;28;20051;-65
2021/10/15 01:12:28;;;;;;;22.08;13.60;;;7.00;99.90;;;;;;5083273;28;20111;-65
2021/10/15 01:14:55;;;;;;;21.83;13.75;;;7.00;99.90;;;;;;5070667;28;20486;-65
2021/10/15 01:17:22;;;;;;;22.20;14.35;;;7.00;99.90;;;;;;5085161;28;20059;-65
2021/10/15 01:19:54;;;;;;;21.15;13.00;;;6.90;99.90;;;;;;5081460;28;20044;-65
2021/10/15 01:22:27;;;;;;;22.85;13.63;;;6.90;99.90;;;;;;5072568;28;20081;-65
2021/10/15 01:24:55;;;;;;;23.70;13.75;;;6.90;99.90;;;;;;5072236;28;20418;-65
2021/10/15 01:27:23;;;;;;;21.27;13.50;;;6.90;99.90;;;;;;5079346;28;20043;-65
2021/10/15 01:29:50;;;;;;;22.77;13.73;;;6.80;99.90;;;;;;5081936;28;20032;-65
2021/10/15 01:32:18;;;;;;;24.63;15.18;;;6.80;99.90;;;;;;5083435;28;20040;-65
2021/10/15 01:34:46;;;;;;;22.02;13.98;;;6.80;99.90;;;;;;5074232;28;20499;-66
2021/10/15 01:37:14;;;;;;;25.80;15.23;;;6.80;99.90;;;;;;5068219;28;20028;-66
2021/10/15 01:39:41;;;;;;;24.63;15.13;;;6.90;99.90;;;;;;5084774;28;20040;-66
2021/10/15 01:42:53;;;;;;;24.25;14.60;;;6.90;99.90;;;;;;5088231;28;20044;-66
2021/10/15 01:44:56;;;;;;;22.08;14.95;;;6.90;99.90;;;;;;5079143;28;20131;-65
2021/10/15 01:47:24;;;;;;;24.35;14.02;;;6.90;99.90;;;;;;5080624;28;20089;-64
2021/10/15 01:49:51;;;;;;;24.55;14.20;;;6.90;99.90;;;;;;5086226;28;20147;-65
2021/10/15 01:52:19;;;;;;;21.70;15.07;;;6.90;99.90;;;;;;5077812;28;20041;-64
2021/10/15 01:54:46;;;;;;;20.88;13.75;;;6.90;99.90;;;;;;5064307;28;20045;-65
2021/10/15 01:57:16;;;;;;;25.00;14.70;;;6.90;99.90;;;;;;5076583;28;20049;-66
2021/10/15 01:59:43;;;;;;;20.63;13.50;;;6.80;99.90;;;;;;5086320;28;20044;-65
2021/10/15 02:02:10;;;;;;;23.15;14.25;;;6.80;99.90;;;;;;5088150;28;20040;-66
2021/10/15 02:04:38;;;;;;;25.27;14.70;;;6.80;99.90;;;;;;5088741;28;20074;-66
2021/10/15 02:07:05;;;;;;;22.55;14.50;;;6.80;99.90;;;;;;5083397;28;20036;-66
2021/10/15 02:09:34;;;;;;;22.20;13.75;;;6.80;99.90;;;;;;5089193;28;20044;-66
2021/10/15 02:12:03;;;;;;;20.58;13.10;;;6.80;99.90;;;;;;5069437;28;20039;-66
2021/10/15 02:14:30;;;;;;;24.98;14.77;;;6.80;99.90;;;;;;5080397;28;20041;-66
2021/10/15 02:16:57;;;;;;;20.02;12.88;;;6.80;99.90;;;;;;5085337;28;20048;-67
2021/10/15 02:19:25;;;;;;;25.40;14.35;;;6.80;99.90;;;;;;5078631;28;20534;-66
2021/10/15 02:21:52;;;;;;;24.20;14.52;;;6.80;99.90;;;;;;5071516;28;20043;-66
2021/10/15 02:24:20;;;;;;;24.95;14.05;;;6.80;99.90;;;;;;5083189;28;20051;-66
2021/10/15 02:26:47;;;;;;;23.27;14.07;;;6.80;99.90;;;;;;5081267;28;20415;-65
2021/10/15 02:29:15;;;;;;;20.98;13.75;;;6.80;99.90;;;;;;5079552;28;20040;-66
2021/10/15 02:31:42;;;;;;;22.88;14.38;;;6.80;99.90;;;;;;5078520;28;20037;-65
2021/10/15 02:34:10;;;;;;;21.27;12.23;;;6.80;99.90;;;;;;5074065;28;20127;-65
2021/10/15 02:36:38;;;;;;;22.40;13.07;;;6.80;99.90;;;;;;5071720;28;20065;-65
2021/10/15 02:39:06;;;;;;;23.75;13.18;;;6.80;99.90;;;;;;5068926;28;20048;-65
2021/10/15 02:41:39;;;;;;;20.20;12.13;;;6.80;99.90;;;;;;5060974;28;20040;-65
2021/10/15 02:44:12;;;;;;;21.90;13.05;;;6.70;99.90;;;;;;5070703;28;20045;-65
2021/10/15 02:46:41;;;;;;;18.60;12.13;;;6.80;99.90;;;;;;5070189;28;20049;-65
2021/10/15 02:49:09;;;;;;;20.08;12.20;;;6.80;99.90;;;;;;5071670;28;20482;-65
2021/10/15 02:51:37;;;;;;;22.25;12.65;;;6.70;99.90;;;;;;5068399;28;20036;-65
2021/10/15 02:54:04;;;;;;;22.40;12.80;;;6.70;99.90;;;;;;5069798;28;20045;-64
2021/10/15 02:56:32;;;;;;;20.10;12.45;;;6.60;99.90;;;;;;5056413;28;20091;-65
2021/10/15 02:58:59;;;;;;;24.95;13.07;;;6.60;99.90;;;;;;5073283;28;20056;-65
2021/10/15 03:01:27;;;;;;;23.25;12.68;;;6.60;99.90;;;;;;5085694;28;20063;-65
2021/10/15 03:03:54;;;;;;;26.02;12.77;;;6.50;99.90;;;;;;5093119;28;20449;-65
2021/10/15 03:06:21;;;;;;;20.65;12.95;;;6.50;99.90;;;;;;5086779;28;20048;-65
2021/10/15 03:08:49;;;;;;;19.10;11.70;;;6.50;99.90;;;;;;5067724;28;20062;-65
2021/10/15 03:11:16;;;;;;;21.30;12.48;;;6.50;99.90;;;;;;5079954;28;20040;-65
2021/10/15 03:13:43;;;;;;;20.48;12.55;;;6.40;99.90;;;;;;5081268;28;20375;-65
2021/10/15 03:16:11;;;;;;;21.70;12.27;;;6.40;99.90;;;;;;5080999;28;20054;-65
2021/10/15 03:18:38;;;;;;;20.40;11.75;;;6.40;99.90;;;;;;5082454;28;20048;-64
2021/10/15 03:21:06;;;;;;;17.35;11.25;;;6.40;99.90;;;;;;5078493;28;20037;-65
2021/10/15 03:23:33;;;;;;;18.13;12.02;;;6.40;99.90;;;;;;5076878;28;20047;-65
2021/10/15 03:26:01;;;;;;;18.02;11.82;;;6.40;99.90;;;;;;5079800;28;20134;-65
2021/10/15 03:28:28;;;;;;;20.30;11.75;;;6.30;99.90;;;;;;5071203;28;20507;-64
2021/10/15 03:30:56;;;;;;;18.40;12.13;;;6.30;99.90;;;;;;5087452;28;20498;-64
2021/10/15 03:33:23;;;;;;;19.73;12.25;;;6.30;99.90;;;;;;5084785;28;20475;-65
2021/10/15 03:35:50;;;;;;;21.02;12.05;;;6.20;99.90;;;;;;5089552;28;20032;-65
2021/10/15 03:38:18;;;;;;;18.98;11.50;;;6.20;99.90;;;;;;5090445;28;20047;-65
2021/10/15 03:40:46;;;;;;;17.63;11.63;;;6.30;99.90;;;;;;5087068;28;20102;-65
2021/10/15 03:43:13;;;;;;;18.17;11.80;;;6.20;99.90;;;;;;5092089;28;20137;-65
2021/10/15 03:45:40;;;;;;;18.70;11.70;;;6.20;99.90;;;;;;5086755;28;20442;-65
2021/10/15 03:48:08;;;;;;;20.13;11.30;;;6.20;99.90;;;;;;5091644;28;20051;-65
2021/10/15 03:50:35;;;;;;;21.63;11.82;;;6.20;99.90;;;;;;5090888;28;20044;-65
2021/10/15 03:53:03;;;;;;;28.42;15.50;;;6.20;99.90;;;;;;5074836;28;20042;-65
2021/10/15 03:55:30;;;;;;;27.55;15.68;;;6.20;99.90;;;;;;5070929;28;20052;-65
2021/10/15 03:57:57;;;;;;;21.05;13.27;;;6.20;99.90;;;;;;5061089;28;20193;-65
2021/10/15 04:00:24;;;;;;;20.05;12.60;;;6.20;99.90;;;;;;5074286;28;20052;-65
2021/10/15 04:02:52;;;;;;;21.33;13.15;;;6.20;99.90;;;;;;5071686;28;20040;-65
2021/10/15 04:05:22;;;;;;;20.60;12.00;;;6.10;99.90;;;;;;5077140;28;20040;-65
2021/10/15 04:07:50;;;;;;;20.33;12.00;;;6.20;99.90;;;;;;5085659;28;20052;-65
2021/10/15 04:10:17;;;;;;;21.42;11.88;;;6.20;99.90;;;;;;5090264;28;20102;-65
2021/10/15 04:12:44;;;;;;;17.33;10.88;;;6.10;99.90;;;;;;5092142;28;20048;-65
2021/10/15 04:15:12;;;;;;;18.27;12.55;;;6.10;99.90;;;;;;5077005;28;20044;-65
2021/10/15 04:17:39;;;;;;;25.52;16.08;;;6.10;99.90;;;;;;5083858;28;20483;-65
2021/10/15 04:20:08;;;;;;;26.15;15.05;;;6.10;99.90;;;;;;5056171;28;20143;-65
2021/10/15 04:22:36;;;;;;;22.88;12.15;;;6.00;99.90;;;;;;5084507;28;20123;-65
2021/10/15 04:25:04;;;;;;;19.42;12.20;;;6.00;99.90;;;;;;5078044;28;20046;-65
2021/10/15 04:27:31;;;;;;;18.67;11.88;;;6.00;99.90;;;;;;5083615;28;20079;-65
2021/10/15 04:29:58;;;;;;;19.63;11.75;;;6.00;99.90;;;;;;5078668;28;20036;-65
2021/10/15 04:32:26;;;;;;;21.85;12.00;;;6.00;99.90;;;;;;5081964;28;20355;-65
2021/10/15 04:34:53;;;;;;;18.60;11.85;;;6.00;99.90;;;;;;5079633;28;20036;-65
2021/10/15 04:37:20;;;;;;;17.38;10.77;;;6.00;99.90;;;;;;5079885;28;20060;-66
2021/10/15 04:39:48;;;;;;;18.45;11.07;;;6.00;99.90;;;;;;5081252;28;20563;-65
2021/10/15 04:42:15;;;;;;;19.65;11.88;;;6.00;99.90;;;;;;5078148;28;20045;-65
2021/10/15 04:44:42;;;;;;;18.25;10.68;;;5.90;99.90;;;;;;5081787;28;20517;-65
2021/10/15 04:47:09;;;;;;;17.02;10.68;;;5.90;99.90;;;;;;5084149;28;20127;-65
2021/10/15 04:49:37;;;;;;;18.30;11.52;;;5.90;99.90;;;;;;5087008;28;20443;-64
2021/10/15 04:52:05;;;;;;;21.30;12.98;;;5.80;99.90;;;;;;5067393;28;20037;-64
2021/10/15 04:54:34;;;;;;;23.55;15.05;;;5.80;99.90;;;;;;5077282;28;20386;-64
2021/10/15 04:57:01;;;;;;;21.15;14.15;;;5.80;99.90;;;;;;5059796;28;20039;-64
2021/10/15 04:59:28;;;;;;;19.83;13.05;;;5.70;99.90;;;;;;5065177;28;20071;-65
2021/10/15 05:01:56;;;;;;;24.55;14.73;;;5.70;99.90;;;;;;5082549;28;20071;-65
2021/10/15 05:04:24;;;;;;;26.15;15.65;;;5.70;99.90;;;;;;5082489;28;20056;-65
2021/10/15 05:06:51;;;;;;;19.55;13.30;;;5.70;99.90;;;;;;5076993;28;20044;-65
2021/10/15 05:09:35;;;;;;;19.83;11.82;;;5.70;99.90;;;;;;5080127;28;20361;-65
2021/10/15 05:12:05;;;;;;;20.02;11.82;;;5.70;99.90;;;;;;5083596;28;20115;-65
2021/10/15 05:14:34;;;;;;;18.05;11.27;;;5.70;99.90;;;;;;5085046;28;20040;-65
2021/10/15 05:17:02;;;;;;;20.95;12.15;;;5.70;99.90;;;;;;5082449;28;20045;-66
2021/10/15 05:19:30;;;;;;;20.63;11.63;;;5.70;99.90;;;;;;5085625;28;20584;-66
2021/10/15 05:21:59;;;;;;;17.40;11.82;;;5.70;99.90;;;;;;5080561;28;20041;-65
2021/10/15 05:24:28;;;;;;;20.58;11.80;;;5.70;99.90;;;;;;5084268;28;20048;-65
2021/10/15 05:26:55;;;;;;;17.10;10.93;;;5.70;99.90;;;;;;5069252;28;20067;-65
2021/10/15 05:29:22;;;;;;;17.95;11.23;;;5.60;99.90;;;;;;5077282;28;20040;-65
2021/10/15 05:31:50;;;;;;;16.55;11.13;;;5.60;99.90;;;;;;5083040;28;20341;-65
2021/10/15 05:34:17;;;;;;;18.92;12.07;;;5.60;99.90;;;;;;5079206;28;20040;-65
2021/10/15 05:36:45;;;;;;;18.85;10.95;;;5.60;99.90;;;;;;5084331;28;20673;-65
2021/10/15 05:39:13;;;;;;;19.45;11.75;;;5.60;99.90;;;;;;5082429;28;20051;-65
2021/10/15 05:41:40;;;;;;;15.13;10.45;;;5.60;99.90;;;;;;5084723;28;20724;-65
2021/10/15 05:44:07;;;;;;;18.48;11.15;;;5.60;99.90;;;;;;5080858;28;20036;-65
2021/10/15 05:46:35;;;;;;;18.42;10.65;;;5.60;99.90;;;;;;5085054;28;20093;-65
2021/10/15 05:49:07;;;;;;;17.63;11.18;;;5.70;99.90;;;;;;5068519;28;20041;-65
2021/10/15 05:51:37;;;;;;;18.67;12.20;;;5.70;99.90;;;;;;5077930;28;20478;-65
2021/10/15 05:54:05;;;;;;;17.60;10.75;;;5.70;99.90;;;;;;5068556;28;20048;-65
2021/10/15 05:59:05;;;;;;;20.35;11.15;;;5.80;99.90;;;;;;5068035;28;20592;-65
2021/10/15 06:01:35;;;;;;;20.55;12.23;;;5.80;99.90;;;;;;5065851;28;20044;-65
2021/10/15 06:14:20;;;;;;;21.25;11.32;;;6.00;99.90;;;;;;5062429;28;20045;-66
2021/10/15 06:16:50;;;;;;;17.10;10.60;;;6.10;99.90;;;;;;5067678;28;20048;-66
2021/10/15 06:19:20;;;;;;;19.20;11.35;;;6.20;99.90;;;;;;5072396;28;20090;-66
2021/10/15 06:21:48;;;;;;;19.05;10.63;;;6.20;99.90;;;;;;5071224;28;20044;-66
2021/10/15 06:24:16;;;;;;;16.75;9.82;;;6.30;99.90;;;;;;5066405;28;20045;-65
2021/10/15 06:26:44;;;;;;;14.18;9.27;;;6.30;99.90;;;;;;5060732;28;20055;-65
2021/10/15 06:29:12;;;;;;;18.25;11.30;;;6.40;99.90;;;;;;5070119;28;20048;-65
2021/10/15 06:31:40;;;;;;;23.70;12.88;;;6.40;99.90;;;;;;5072651;28;20049;-65
2021/10/15 06:34:07;;;;;;;20.42;11.57;;;6.50;99.90;;;;;;5076217;28;20461;-65
2021/10/15 06:36:35;;;;;;;20.13;11.40;;;6.50;99.90;;;;;;5072750;28;20033;-65
2021/10/15 06:39:03;;;;;;;19.85;10.93;;;6.60;99.90;;;;;;5077076;28;20045;-65
2021/10/15 06:41:30;;;;;;;17.17;10.27;;;6.70;99.90;;;;;;5075275;28;20548;-65
2021/10/15 06:43:57;;;;;;;15.52;9.80;;;6.80;99.90;;;;;;5075406;28;20041;-65
2021/10/15 06:46:25;;;;;;;14.68;9.43;;;6.90;99.90;;;;;;5076165;28;20483;-65
2021/10/15 06:48:53;;;;;;;17.02;10.52;;;6.90;99.90;;;;;;5076048;28;20044;-65
2021/10/15 06:51:20;;;;;;;21.33;12.32;;;7.00;99.90;;;;;;5074115;28;20105;-65
2021/10/15 06:53:47;;;;;;;21.35;13.05;;;7.10;99.90;;;;;;5072623;28;20136;-65
2021/10/15 06:56:14;;;;;;;18.30;11.05;;;7.20;99.90;;;;;;5075448;28;20485;-65
2021/10/15 06:58:42;;;;;;;19.02;10.52;;;7.30;99.90;;;;;;5073455;28;20052;-65
2021/10/15 07:01:09;;;;;;;14.88;8.85;;;7.40;99.90;;;;;;5048485;28;20572;-65
2021/10/15 07:03:37;;;;;;;18.67;10.88;;;7.50;99.90;;;;;;5084630;28;20040;-65
2021/10/15 07:06:04;;;;;;;18.80;9.05;;;7.60;99.90;;;;;;5074537;28;20098;-65
2021/10/15 07:08:31;;;;;;;13.65;9.65;;;7.70;99.90;;;;;;5073147;28;20419;-65
2021/10/15 07:10:58;;;;;;;16.17;8.82;;;7.80;99.90;;;;;;5073790;28;20166;-65
2021/10/15 07:13:26;;;;;;;19.13;10.50;;;7.90;99.90;;;;;;5075393;28;20490;-65
2021/10/15 07:15:53;;;;;;;15.38;9.50;;;8.10;99.90;;;;;;5084234;28;20036;-65
2021/10/15 07:18:20;;;;;;;14.05;9.30;;;8.20;99.90;;;;;;5073060;28;20050;-65
2021/10/15 07:20:48;;;;;;;12.60;8.13;;;8.40;99.90;;;;;;5076513;28;20051;-65
2021/10/15 07:23:16;;;;;;;14.35;8.40;;;8.60;99.90;;;;;;5078425;28;20036;-65
2021/10/15 07:25:45;;;;;;;13.80;8.13;;;8.80;99.90;;;;;;5083717;28;20036;-65
2021/10/15 07:28:13;;;;;;;11.88;7.75;;;8.90;99.90;;;;;;5081272;28;20062;-65
2021/10/15 07:30:41;;;;;;;12.70;7.90;;;8.90;99.90;;;;;;5082465;28;20139;-65
2021/10/15 07:33:09;;;;;;;15.20;8.45;;;9.00;99.90;;;;;;5073591;28;20502;-65
2021/10/15 07:35:36;;;;;;;14.05;8.02;;;9.00;99.90;;;;;;5082949;28;20037;-65
2021/10/15 07:38:04;;;;;;;12.93;7.30;;;9.10;99.90;;;;;;5090426;28;20127;-65
2021/10/15 07:40:31;;;;;;;13.00;7.43;;;9.20;99.90;;;;;;5085547;28;20054;-65
2021/10/15 07:42:58;;;;;;;15.30;7.65;;;9.30;99.90;;;;;;5080458;28;20040;-65
2021/10/15 07:45:26;;;;;;;14.20;7.75;;;9.30;99.90;;;;;;5066160;28;20135;-65
2021/10/15 07:48:01;;;;;;;22.67;11.15;;;9.40;99.90;;;;;;5075168;28;20053;-65
2021/10/15 07:50:28;;;;;;;15.57;9.27;;;9.40;99.90;;;;;;5076806;28;20040;-65
2021/10/15 07:52:56;;;;;;;11.95;8.00;;;9.50;99.90;;;;;;5067950;28;20554;-65
2021/10/15 07:55:23;;;;;;;12.85;8.18;;;9.40;99.90;;;;;;5071478;28;20043;-65
2021/10/15 07:57:51;;;;;;;10.98;6.47;;;9.50;99.90;;;;;;5080321;28;20052;-65
2021/10/15 08:00:18;;;;;;;14.48;7.90;;;9.60;99.90;;;;;;5066737;28;20101;-65
2021/10/15 08:02:46;;;;;;;14.50;7.35;;;9.60;99.90;;;;;;5073252;28;20048;-65
2021/10/15 08:05:16;;;;;;;15.32;9.18;;;9.70;99.90;;;;;;5082592;28;20069;-65
2021/10/15 08:07:44;;;;;;;13.45;7.60;;;9.70;99.90;;;;;;5084507;28;20072;-65
2021/10/15 08:10:11;;;;;;;12.48;7.40;;;9.80;99.90;;;;;;5087242;28;20483;-65
2021/10/15 08:12:39;;;;;;;15.38;7.80;;;10.00;99.90;;;;;;5091306;28;20052;-65
2021/10/15 08:15:09;;;;;;;14.75;8.05;;;10.20;99.90;;;;;;5076098;28;20044;-65
2021/10/15 08:17:42;;;;;;;13.32;7.97;;;10.30;99.90;;;;;;5074567;28;20052;-66
2021/10/15 08:20:16;;;;;;;13.80;7.20;;;10.60;99.90;;;;;;5071337;28;20517;-65
2021/10/15 08:22:54;;;;;;;11.23;7.32;;;10.60;99.90;;;;;;5079630;28;20102;-65
2021/10/15 08:25:28;;;;;;;13.60;7.28;;;10.60;99.90;;;;;;5066421;28;20049;-65
2021/10/15 08:27:57;;;;;;;14.15;7.15;;;10.70;99.90;;;;;;5071368;28;20050;-66
2021/10/15 08:30:27;;;;;;;12.40;7.65;;;10.70;99.90;;;;;;5074752;28;20422;-65
2021/10/15 08:32:54;;;;;;;14.25;8.40;;;10.80;99.90;;;;;;5078020;28;20048;-66
2021/10/15 08:35:23;;;;;;;10.07;7.07;;;11.00;99.90;;;;;;5084182;28;20048;-66
2021/10/15 08:37:51;;;;;;;12.13;7.40;;;11.20;99.90;;;;;;5076509;28;20043;-66
2021/10/15 08:40:19;;;;;;;13.13;6.28;;;11.30;99.90;;;;;;5086260;28;20532;-65
2021/10/15 08:42:52;;;;;;;11.13;6.38;;;11.30;99.90;;;;;;5086202;28;20040;-65
2021/10/15 08:45:28;;;;;;;11.93;7.45;;;11.40;99.90;;;;;;5090803;28;20055;-65
2021/10/15 08:47:57;;;;;;;10.75;6.60;;;11.40;99.90;;;;;;5088536;28;20040;-65
2021/10/15 08:50:43;;;;;;;9.38;6.35;;;11.30;99.90;;;;;;5088302;28;20044;-65
2021/10/15 08:53:10;;;;;;;10.88;7.60;;;11.40;99.90;;;;;;5071410;28;20491;-65
2021/10/15 08:55:38;;;;;;;13.52;6.75;;;11.60;99.90;;;;;;5053608;28;20115;-65
2021/10/15 08:58:05;;;;;;;10.25;6.43;;;11.70;99.90;;;;;;5079964;28;20048;-66
2021/10/15 09:00:36;;;;;;;10.88;6.85;;;11.70;99.90;;;;;;5070192;28;20074;-66
2021/10/15 09:03:23;;;;;;;13.20;7.57;;;11.90;99.90;;;;;;5058807;28;20076;-66
2021/10/15 09:06:02;;;;;;;10.95;7.05;;;12.10;99.90;;;;;;5076587;28;20043;-65
2021/10/15 09:08:55;;;;;;;13.07;7.13;;;12.20;99.90;;;;;;5077868;28;20048;-65
2021/10/15 09:11:39;;;;;;;13.35;7.72;;;12.40;99.90;;;;;;5069519;28;20051;-65
2021/10/15 09:14:25;;;;;;;12.88;6.68;;;12.50;99.90;;;;;;5077281;28;20033;-66
2021/10/15 09:16:59;;;;;;;11.10;6.97;;;12.50;99.90;;;;;;5083277;28;20402;-65
2021/10/15 09:19:35;;;;;;;15.10;6.90;;;12.50;99.90;;;;;;5087650;28;20419;-66
2021/10/15 09:22:05;;;;;;;9.93;6.35;;;12.70;99.90;;;;;;5085450;28;20080;-66
2021/10/15 09:25:05;;;;;;;12.38;7.07;;;12.80;99.90;;;;;;5087557;28;20051;-66
2021/10/15 09:27:38;;;;;;;13.68;6.93;;;13.00;99.90;;;;;;5082889;28;20426;-65
2021/10/15 09:30:14;;;;;;;11.40;6.10;;;13.00;99.90;;;;;;5089276;28;20055;-66
2021/10/15 09:32:50;;;;;;;9.15;6.15;;;13.10;99.90;;;;;;5088138;28;20561;-66
2021/10/15 09:35:24;;;;;;;11.98;6.47;;;13.10;99.90;;;;;;5083201;28;20070;-66
2021/10/15 09:37:55;;;;;;;11.45;6.00;;;13.20;99.90;;;;;;5071966;28;20040;-65
2021/10/15 09:40:24;;;;;;;9.88;5.60;;;13.00;99.90;;;;;;5072258;28;20048;-66
2021/10/15 09:42:57;;;;;;;8.85;5.20;;;13.00;99.90;;;;;;5067383;28;20728;-65
2021/10/15 09:45:31;;;;;;;9.93;5.75;;;13.00;99.90;;;;;;5065804;28;20041;-65
2021/10/15 09:48:01;;;;;;;10.70;6.82;;;13.20;99.90;;;;;;5083065;28;20558;-65
2021/10/15 09:50:31;;;;;;;10.50;6.28;;;13.40;99.90;;;;;;5080526;28;20380;-65
2021/10/15 09:53:03;;;;;;;9.98;6.38;;;13.50;99.90;;;;;;5074593;28;20045;-67
2021/10/15 09:55:38;;;;;;;11.38;6.47;;;13.60;99.90;;;;;;5069254;28;20067;-67
2021/10/15 09:58:12;;;;;;;12.10;6.00;;;13.70;99.90;;;;;;5075447;28;20169;-66
2021/10/15 10:00:41;;;;;;;11.05;6.15;;;13.90;99.90;;;;;;5081747;28;20040;-67
2021/10/15 10:03:09;;;;;;;8.60;6.10;;;14.10;99.90;;;;;;5071043;28;20068;-67
2021/10/15 10:05:37;;;;;;;10.93;6.53;;;14.30;99.90;;;;;;5082412;28;20044;-67
2021/10/15 10:08:10;;;;;;;8.30;5.38;;;14.50;99.90;;;;;;5062443;28;20049;-66
2021/10/15 10:10:39;;;;;;;8.07;5.43;;;14.80;99.90;;;;;;5070414;28;20041;-65
2021/10/15 10:13:08;;;;;;;9.80;6.35;;;15.10;99.90;;;;;;5069348;28;20040;-64
2021/10/15 10:15:38;;;;;;;10.00;5.90;;;15.30;99.90;;;;;;5070880;28;20119;-65
2021/10/15 10:21:09;;;;;;;8.93;5.55;;;16.00;99.90;;;;;;5069813;28;20051;-65
2021/10/15 10:23:39;;;;;;;7.40;5.05;;;15.90;99.90;;;;;;5070899;28;20499;-65
2021/10/15 10:26:11;;;;;;;8.98;5.25;;;15.90;99.90;;;;;;5070404;28;20495;-65
2021/10/15 10:28:39;;;;;;;;;;;15.80;99.90;;;;;;5068043;28;20041;-65
2021/10/15 10:31:21;;;;;;;10.25;6.13;;;15.80;99.90;;;;;;5085441;28;20242;-65
2021/10/15 10:33:53;;;;;;;;;;;15.60;99.90;;;;;;5071698;28;20048;-66
2021/10/15 10:36:21;;;;;;;10.30;5.32;;;15.70;99.90;;;;;;5080930;28;19930;-65
2021/10/15 10:38:48;;;;;;;9.45;5.13;;;15.60;99.90;;;;;;5068072;28;20051;-65
2021/10/15 10:41:29;;;;;;;7.88;4.95;;;15.60;99.90;;;;;;5068590;28;20062;-65
2021/10/15 10:43:57;;;;;;;7.03;4.72;;;15.70;99.90;;;;;;5071176;28;20058;-65
2021/10/15 10:46:28;;;;;;;8.88;4.97;;;15.90;99.90;;;;;;5067023;28;20040;-65
2021/10/15 10:48:56;;;;;;;7.60;4.35;;;15.80;99.90;;;;;;5076777;28;20403;-64
2021/10/15 10:51:33;;;;;;;6.78;4.18;;;15.50;99.90;;;;;;5082238;28;20055;-65
2021/10/15 10:54:00;;;;;;;6.50;3.65;;;15.40;99.90;;;;;;5069884;28;20048;-65
2021/10/15 10:56:39;;;;;;;6.72;4.20;;;15.50;99.90;;;;;;5068654;28;20406;-65
2021/10/15 10:59:16;;;;;;;6.47;3.83;;;15.60;99.90;;;;;;5067615;28;20036;-65
2021/10/15 11:02:02;;;;;;;5.78;3.50;;;15.50;99.90;;;;;;5081570;28;20127;-65
2021/10/15 11:04:31;;;;;;;8.27;3.85;;;15.60;99.90;;;;;;5062545;28;20052;-65
2021/10/15 11:07:01;;;;;;;6.85;4.00;;;15.90;99.90;;;;;;5067256;28;20051;-65
2021/10/15 11:09:42;;;;;;;7.93;4.88;;;16.20;99.90;;;;;;5073566;28;20135;-65
2021/10/15 11:12:21;;;;;;;9.20;4.07;;;16.80;99.90;;;;;;5070331;28;20045;-67
2021/10/15 11:15:05;;;;;;;8.88;4.10;;;16.90;99.90;;;;;;5071837;28;20040;-65
2021/10/15 11:17:37;;;;;;;5.93;4.00;;;16.90;99.90;;;;;;5074318;28;20051;-65
2021/10/15 11:20:07;;;;;;;;;;;16.70;99.90;;;;;;5080088;28;20132;-65
2021/10/15 11:22:36;;;;;;;6.63;3.58;;;16.90;99.90;;;;;;5079423;28;19924;-67
2021/10/15 11:25:05;;;;;;;7.50;3.15;;;16.70;99.90;;;;;;5085629;28;20063;-64
2021/10/15 11:27:33;;;;;;;8.05;4.10;;;16.70;99.90;;;;;;5078844;28;20048;-65
2021/10/15 11:30:01;;;;;;;5.72;3.47;;;16.70;99.90;;;;;;5072659;28;20048;-65
2021/10/15 11:32:31;;;;;;;6.47;2.83;;;17.00;99.90;;;;;;5073419;28;20047;-65
2021/10/15 11:35:08;;;;;;;6.50;3.85;;;17.40;99.90;;;;;;5075748;28;20123;-65
2021/10/15 11:37:57;;;;;;;4.15;2.47;;;17.70;99.90;;;;;;5077164;28;20044;-65
2021/10/15 11:40:44;;;;;;;5.00;2.63;;;17.90;99.90;;;;;;5069586;28;20063;-64
2021/10/15 11:43:26;;;;;;;4.35;2.33;;;17.60;99.90;;;;;;5070210;28;20048;-65
2021/10/15 11:46:00;;;;;;;6.70;2.85;;;17.40;99.90;;;;;;5085650;28;20063;-65
2021/10/15 11:48:41;;;;;;;5.70;2.47;;;17.40;99.90;;;;;;5091070;28;20040;-65
2021/10/15 11:51:19;;;;;;;5.30;2.22;;;17.40;99.90;;;;;;5077645;28;20032;-65
2021/10/15 11:53:56;;;;;;;6.68;2.45;;;17.80;99.90;;;;;;5059206;28;20336;-64
2021/10/15 11:56:34;;;;;;;4.25;2.10;;;17.70;99.90;;;;;;5071739;28;20082;-65
2021/10/15 11:59:09;;;;;;;7.60;2.03;;;17.50;99.90;;;;;;5074046;28;20187;-65
2021/10/15 12:01:36;;;;;;;5.55;2.08;;;17.50;99.90;;;;;;5088713;28;20047;-65
2021/10/15 12:04:14;;;;;;;5.28;2.00;;;17.80;99.90;;;;;;5090530;28;20039;-65
2021/10/15 12:06:45;;;;;;;3.95;1.98;;;18.10;99.90;;;;;;5085399;28;20472;-65
2021/10/15 12:09:17;;;;;;;3.40;2.00;;;18.00;99.90;;;;;;5091886;28;20051;-65
2021/10/15 12:11:50;;;;;;;4.18;2.03;;;17.90;99.90;;;;;;5090451;28;20052;-65
2021/10/15 12:14:29;;;;;;;7.28;2.38;;;18.50;99.90;;;;;;5086945;28;20047;-65
2021/10/15 12:17:07;;;;;;;5.93;2.55;;;18.60;99.90;;;;;;5087055;28;20062;-65
2021/10/15 12:19:37;;;;;;;4.60;2.08;;;19.00;99.90;;;;;;5073551;28;20089;-65
2021/10/15 12:22:07;;;;;;;7.60;2.58;;;19.60;99.90;;;;;;5084872;28;20037;-65
2021/10/15 12:24:43;;;;;;;6.47;3.03;;;20.50;99.90;;;;;;5086234;28;20131;-65
2021/10/15 12:27:12;;;;;;;4.05;2.17;;;20.70;99.90;;;;;;5071907;28;20041;-65
2021/10/15 12:29:59;;;;;;;5.40;2.60;;;21.00;99.90;;;;;;5060783;28;20132;-65
2021/10/15 12:32:39;;;;;;;6.95;3.03;;;22.50;99.90;;;;;;5075094;28;20048;-66
2021/10/15 12:35:15;;;;;;;5.30;2.30;;;23.90;99.90;;;;;;5076171;28;20036;-66
2021/10/15 12:37:46;;;;;;;6.05;3.00;;;24.70;99.90;;;;;;5085973;28;20141;-66
2021/10/15 12:40:32;;;;;;;5.47;2.40;;;25.30;99.90;;;;;;5079999;28;20062;-65
2021/10/15 12:43:11;;;;;;;5.28;2.58;;;25.60;99.90;;;;;;5071680;28;20120;-66
2021/10/15 12:45:58;;;;;;;5.00;2.35;;;26.10;99.90;;;;;;5072072;28;20056;-66
2021/10/15 12:48:28;;;;;;;5.05;2.30;;;27.40;99.90;;;;;;5081253;28;20044;-66
2021/10/15 12:51:13;;;;;;;5.80;2.03;;;26.50;99.90;;;;;;5078322;28;20136;-65
2021/10/15 12:53:49;;;;;;;5.50;2.13;;;25.20;99.90;;;;;;5057544;28;20049;-65
2021/10/15 12:56:29;;;;;;;3.67;2.00;;;24.10;99.90;;;;;;5071438;28;20131;-65
2021/10/15 12:58:59;;;;;;;5.32;2.22;;;22.80;99.90;;;;;;5053539;28;20048;-65
2021/10/15 13:01:29;;;;;;;3.47;1.80;;;21.50;99.90;;;;;;5071040;28;20048;-66
2021/10/15 13:03:58;;;;;;;4.95;1.83;;;20.90;99.90;;;;;;5060310;28;20041;-66
2021/10/15 13:06:30;;;;;;;4.15;1.77;;;20.70;99.90;;;;;;5058967;28;20063;-65
2021/10/15 13:08:58;;;;;;;4.35;1.90;;;20.20;99.90;;;;;;5068962;28;20105;-65
2021/10/15 13:11:27;;;;;;;4.80;2.15;;;20.00;99.90;;;;;;5072291;28;20089;-65